Архив погоды в Невинномысске

Метеограмма Невинномысск
Среда, 26 Июня
Время местн. Темп Ветер Видим Явления Облачность нижн/средн/верх Атм. давл. Влжн Точка росы ВНГО R Сост. почвы Tg s
Напр Скр Прв ур.ст ур.м изм
15:00 +32.9° В,Ю-В 1 - 20 км гроза без осадков {ливневые осадки} облачно с прояснениями 733 761 -1.1 27% +11.6° 1.5 км - - - -
12:00 +27.1° В 1 - 20 км облака рассеиваются {гроза, ливневые осадки} переменная облачность 734 762 -0.3 62% +19.1° 1.5 км - - - -
09:00 +22.6° С-В 1 - 20 км гроза без осадков облачно 734 763 +0.5 74% +17.8° 1.5 км - - - -
06:00 +21.9° Ю,Ю-З 1 - 20 км - облачно 734 763 +0.3 74% +17° - - Сухая (без трещин) - -
03:00 +21.4° Ю,Ю-З 1 - 20 км облака развиваются {гроза} облачно 733 762 -0.1 75% +16.8° более 2.5 км - - - -
00:00 +23.7° З 1 - 20 км облака рассеиваются {гроза} облачно 733 762 +0.6 64% +16.4° - - - - -
Вторник, 25 Июня
Время местн. Темп Ветер Видим Явления Облачность нижн/средн/верх Атм. давл. Влжн Точка росы ВНГО R Сост. почвы Tg s
Напр Скр Прв ур.ст ур.м изм
21:00 +27.8° С,С-В 1 - 20 км - облачно 733 761 -0.1 44% +14.4° - - - - -
18:00 +31.2° С-З 3 - 20 км - облачно 732 760 -0.1 32% +12.6° - - - - -
15:00 +32.9° С-З 3 - 20 км - облачно 732 760 +0.4 32% +13.8° 1.5 км - - - -
12:00 +30.9° З,Ю-З 2 - 20 км - облачно 732 761 +0.4 36% +14.1° 1.5 км - - - -
09:00 +26° Ю-З 1 - 20 км - ясно 733 762 +0.4 63% +18.4° более 2.5 км - - - -
06:00 +20.7° Ю,Ю-З 2 - 20 км - ясно 732 762 +0.4 77% +16.6° более 2.5 км - Сухая (без трещин) - -
03:00 +20° Ю-З 1 - 20 км - переменная облачность 732 761 +0.1 85% +17.4° более 2.5 км - - - -
00:00 +20.6° Ю,Ю-З 1 - 20 км - ясно 732 761 +0.2 80% +17° более 2.5 км - - - -
Понедельник, 24 Июня
Время местн. Темп Ветер Видим Явления Облачность нижн/средн/верх Атм. давл. Влжн Точка росы ВНГО R Сост. почвы Tg s
Напр Скр Прв ур.ст ур.м изм
21:00 +24.6° штиль 0 - 20 км - облачно с прояснениями 732 761 +1.1 63% +17° - - - - -
18:00 +28.3° З,С-З 2 - 20 км - облачно с прояснениями 731 759 -0.2 51% +17.3° более 2.5 км - - - -
15:00 +30.7° С 1 - 20 км - облачно с прояснениями 731 759 -0.5 37% +14.5° более 2.5 км - - - -
12:00 +26.2° С-В 1 - 20 км - облачно 731 760 -0.5 59% +17.6° 1.5 км - - - -
09:00 +21.5° Ю 1 - 20 км - облачно 732 761 -0.4 76% +17.1° 1.5 км - - - -
06:00 +19.4° Ю,Ю-З 3 - 20 км - облачно 732 762 +1.2 84% +16.7° 1.5 км - Влажная (без луж) - -
03:00 +19° Ю 1 - 20 км - облачно 731 761 +0.6 91% +17.5° - - - - -
00:00 +20° Ю-В 1 - 20 км - переменная облачность 730 760 -0.3 86% +17.6° - - - - -
Воскресенье, 23 Июня
Время местн. Темп Ветер Видим Явления Облачность нижн/средн/верх Атм. давл. Влжн Точка росы ВНГО R Сост. почвы Tg s
Напр Скр Прв ур.ст ур.м изм
21:00 +21.1° штиль 0 - 20 км облака рассеиваются {гроза, ливневые осадки} облачно 731 760 -0.2 81% +17.8° 1.5 км - - - -
18:00 +22.8° З,С-З 3 - 10 км слабая или умеренная гроза с осадками облачно 731 760 +1.4 83% +19.7° 1.5 км - - - -
15:00 +34.5° В,Ю-В 3 - 20 км - облачно 730 758 -0.2 22% +10° 1.5 км - - - -
12:00 +33.5° В,Ю-В 3 - 20 км - облачно 730 758 -0.2 22% +8.6° - - - - -